createdAt,value
2018-09-10T00:00:13.618Z,87.00
2018-09-10T00:02:15.798Z,87.10
2018-09-10T00:04:17.941Z,87.10
2018-09-10T00:06:20.056Z,87.10
2018-09-10T00:08:22.170Z,87.10
2018-09-10T00:10:24.282Z,87.20
2018-09-10T00:12:26.416Z,87.20
2018-09-10T00:14:28.545Z,87.20
2018-09-10T00:16:30.791Z,87.30
2018-09-10T00:18:33.085Z,87.30
2018-09-10T00:20:35.197Z,87.20
2018-09-10T00:22:37.293Z,87.10
2018-09-10T00:24:39.414Z,87.20
2018-09-10T00:26:41.901Z,87.10
2018-09-10T00:28:44.038Z,87.20
2018-09-10T00:30:53.061Z,87.40
2018-09-10T00:32:55.221Z,87.20
2018-09-10T00:34:57.390Z,87.20
2018-09-10T00:36:59.630Z,87.30
2018-09-10T00:39:02.042Z,87.30
2018-09-10T00:41:04.191Z,87.20
2018-09-10T00:43:06.358Z,87.40
2018-09-10T00:45:09.243Z,87.50
2018-09-10T00:47:11.384Z,87.20
2018-09-10T00:49:13.540Z,87.10
2018-09-10T00:51:15.682Z,87.40
2018-09-10T00:53:17.862Z,87.50
2018-09-10T00:55:20.085Z,87.30
2018-09-10T00:57:22.222Z,87.50
2018-09-10T00:59:24.453Z,87.30
2018-09-10T01:01:26.568Z,87.50
2018-09-10T01:03:28.673Z,87.30
2018-09-10T01:05:31.078Z,87.50
2018-09-10T01:07:33.218Z,87.40
2018-09-10T01:09:35.414Z,87.50
2018-09-10T01:11:38.267Z,87.60
2018-09-10T01:13:40.530Z,87.30
2018-09-10T01:15:42.762Z,87.40
2018-09-10T01:17:44.912Z,87.50
2018-09-10T01:19:47.038Z,87.60
2018-09-10T01:21:49.186Z,87.40
2018-09-10T01:23:51.462Z,87.30
2018-09-10T01:25:53.625Z,87.50
2018-09-10T01:27:55.766Z,87.40
2018-09-10T01:29:57.977Z,87.50
2018-09-10T01:32:00.121Z,87.40
2018-09-10T01:34:07.925Z,87.40
2018-09-10T01:36:10.066Z,87.20
2018-09-10T01:38:12.227Z,87.20
2018-09-10T01:40:14.355Z,87.40
2018-09-10T01:42:16.802Z,87.40
2018-09-10T01:44:18.914Z,87.20
2018-09-10T01:46:21.045Z,87.20
2018-09-10T01:48:23.282Z,87.10
2018-09-10T01:50:25.424Z,87.10
2018-09-10T01:52:28.183Z,86.80
2018-09-10T01:54:30.312Z,86.90
2018-09-10T01:56:33.287Z,86.80
2018-09-10T01:58:35.460Z,86.70
2018-09-10T02:00:37.595Z,86.80
2018-09-10T02:02:39.738Z,86.80
2018-09-10T02:04:41.851Z,86.90
2018-09-10T02:06:43.983Z,87.00
2018-09-10T02:08:46.370Z,87.00
2018-09-10T02:10:48.572Z,87.30
2018-09-10T02:12:50.722Z,87.40
2018-09-10T02:14:54.281Z,87.20
2018-09-10T02:16:56.394Z,87.30
2018-09-10T02:18:58.538Z,87.20
2018-09-10T02:21:00.666Z,87.20
2018-09-10T02:23:02.810Z,87.40
2018-09-10T02:25:04.974Z,87.40
2018-09-10T02:27:07.174Z,87.40
2018-09-10T02:29:09.367Z,87.40
2018-09-10T02:31:11.430Z,87.60
2018-09-10T02:33:13.679Z,87.30
2018-09-10T02:35:15.842Z,87.70
2018-09-10T02:37:17.969Z,87.70
2018-09-10T02:39:20.174Z,87.80
2018-09-10T02:41:22.289Z,87.70
2018-09-10T02:43:24.665Z,87.80
2018-09-10T02:45:26.852Z,87.70
2018-09-10T02:47:29.047Z,87.70
2018-09-10T02:49:31.167Z,87.60
2018-09-10T02:51:33.322Z,87.40
2018-09-10T02:53:35.511Z,87.80
2018-09-10T02:55:37.638Z,87.60
2018-09-10T02:57:39.816Z,87.40
2018-09-10T02:59:41.946Z,87.60
2018-09-10T03:01:44.310Z,87.60
2018-09-10T03:03:46.735Z,87.90
2018-09-10T03:05:48.866Z,87.80
2018-09-10T03:07:51.050Z,87.80
2018-09-10T03:09:53.146Z,87.90
2018-09-10T03:11:55.264Z,87.90
2018-09-10T03:13:57.406Z,87.60
2018-09-10T03:15:59.542Z,87.70
2018-09-10T03:18:01.724Z,87.80
2018-09-10T03:20:03.832Z,87.90
2018-09-10T03:22:05.982Z,87.80
2018-09-10T03:24:08.237Z,87.70
2018-09-10T03:26:10.305Z,87.70
2018-09-10T03:28:12.424Z,87.60
2018-09-10T03:30:14.779Z,87.70
2018-09-10T03:32:16.932Z,87.70
2018-09-10T03:34:19.048Z,87.70
2018-09-10T03:36:21.418Z,87.40
2018-09-10T03:38:23.588Z,87.60
2018-09-10T03:40:25.701Z,87.60
2018-09-10T03:42:28.309Z,87.40
2018-09-10T03:44:30.462Z,87.70
2018-09-10T03:46:32.670Z,87.70
2018-09-10T03:48:34.911Z,87.70
2018-09-10T03:50:37.101Z,87.60
2018-09-10T03:52:39.325Z,87.70
2018-09-10T03:54:41.739Z,87.80
2018-09-10T03:56:43.886Z,87.40
2018-09-10T03:58:46.067Z,87.80
2018-09-10T04:00:48.234Z,87.70
2018-09-10T04:02:50.386Z,87.70
2018-09-10T04:04:52.563Z,87.60
2018-09-10T04:06:54.838Z,87.40
2018-09-10T04:08:56.974Z,87.40
2018-09-10T04:10:59.102Z,87.60
2018-09-10T04:13:01.377Z,87.30
2018-09-10T04:15:03.741Z,87.30
2018-09-10T04:17:06.015Z,87.60
2018-09-10T04:19:08.195Z,87.30
2018-09-10T04:21:10.406Z,87.20
2018-09-10T04:23:12.615Z,87.40
2018-09-10T04:25:14.763Z,87.40
2018-09-10T04:27:16.906Z,87.20
2018-09-10T04:29:19.171Z,87.40
2018-09-10T04:31:21.356Z,87.40
2018-09-10T04:33:23.487Z,87.30
2018-09-10T04:35:25.623Z,87.30
2018-09-10T04:37:27.788Z,87.40
2018-09-10T04:39:30.062Z,87.60
2018-09-10T04:41:38.527Z,87.60
2018-09-10T04:43:40.727Z,87.20
2018-09-10T04:45:42.858Z,87.40
2018-09-10T04:47:44.986Z,87.40
2018-09-10T04:49:47.212Z,87.70
2018-09-10T04:51:55.999Z,87.70
2018-09-10T04:53:58.299Z,87.80
2018-09-10T04:56:00.528Z,87.80
2018-09-10T04:58:02.790Z,87.90
2018-09-10T05:00:04.996Z,87.90
2018-09-10T05:02:07.146Z,87.90
2018-09-10T05:04:09.298Z,87.90
2018-09-10T05:06:11.428Z,87.90
2018-09-10T05:08:13.852Z,88.10
2018-09-10T05:10:15.959Z,88.10
2018-09-10T05:12:18.130Z,88.20
2018-09-10T05:14:21.078Z,88.10
2018-09-10T05:16:23.215Z,88.20
2018-09-10T05:18:25.343Z,88.40
2018-09-10T05:20:27.468Z,88.40
2018-09-10T05:22:29.602Z,88.20
2018-09-10T05:24:31.726Z,88.30
2018-09-10T05:26:33.911Z,88.00
2018-09-10T05:28:36.024Z,88.00
2018-09-10T05:30:38.134Z,87.90
2018-09-10T05:32:40.251Z,87.90
2018-09-10T05:34:42.356Z,87.70
2018-09-10T05:36:44.631Z,87.80
2018-09-10T05:38:46.778Z,87.90
2018-09-10T05:40:48.890Z,87.90
2018-09-10T05:42:50.987Z,88.10
2018-09-10T05:44:53.094Z,88.00
2018-09-10T05:46:55.346Z,88.00
2018-09-10T05:48:57.518Z,88.10
2018-09-10T05:50:59.850Z,88.00
2018-09-10T05:53:01.996Z,87.80
2018-09-10T05:55:04.183Z,87.90
2018-09-10T05:57:06.408Z,88.00
2018-09-10T05:59:08.630Z,87.80
2018-09-10T06:01:10.794Z,87.60
2018-09-10T06:03:12.953Z,87.30
2018-09-10T06:05:15.087Z,87.10
2018-09-10T06:07:17.203Z,86.90
2018-09-10T06:09:19.671Z,87.10
2018-09-10T06:11:21.806Z,87.10
2018-09-10T06:13:24.267Z,86.80
2018-09-10T06:15:26.446Z,86.90
2018-09-10T06:17:29.312Z,86.90
2018-09-10T06:19:31.429Z,86.80
2018-09-10T06:21:33.579Z,86.90
2018-09-10T06:23:35.699Z,86.50
2018-09-10T06:25:37.826Z,86.50
2018-09-10T06:27:40.104Z,86.60
2018-09-10T06:29:42.303Z,86.50
2018-09-10T06:31:44.438Z,86.40
2018-09-10T06:33:46.698Z,86.30
2018-09-10T06:35:48.878Z,86.30
2018-09-10T06:37:51.015Z,86.10
2018-09-10T06:39:53.609Z,86.60
2018-09-10T06:41:55.723Z,86.50
2018-09-10T06:43:57.822Z,86.30
2018-09-10T06:46:00.123Z,86.50
2018-09-10T06:48:02.274Z,86.50
2018-09-10T06:50:04.414Z,86.80
2018-09-10T06:52:06.582Z,87.10
2018-09-10T06:54:08.687Z,87.20
2018-09-10T06:56:11.398Z,87.80
2018-09-10T06:58:13.674Z,87.80
2018-09-10T07:00:15.851Z,87.90
2018-09-10T07:02:17.991Z,88.20
2018-09-10T07:04:20.114Z,88.40
2018-09-10T07:06:22.286Z,88.10
2018-09-10T07:08:24.438Z,88.30
2018-09-10T07:10:26.611Z,88.30
2018-09-10T07:12:28.840Z,88.40
2018-09-10T07:14:30.968Z,88.40
2018-09-10T07:16:33.086Z,88.20
2018-09-10T07:18:35.282Z,88.40
2018-09-10T07:20:37.795Z,88.40
2018-09-10T07:22:39.917Z,88.70
2018-09-10T07:24:42.021Z,88.90
2018-09-10T07:26:44.151Z,88.50
2018-09-10T07:28:46.286Z,88.50
2018-09-10T07:30:48.406Z,88.70
2018-09-10T07:32:50.574Z,88.50
2018-09-10T07:34:52.706Z,88.60
2018-09-10T07:36:54.847Z,88.60
2018-09-10T07:38:56.982Z,88.70
2018-09-10T07:40:59.106Z,88.40
2018-09-10T07:43:01.227Z,88.40
2018-09-10T07:45:03.370Z,88.30
2018-09-10T07:47:05.532Z,88.10
2018-09-10T07:49:07.651Z,87.90
2018-09-10T07:51:10.041Z,88.00
2018-09-10T07:53:12.183Z,87.80
2018-09-10T07:55:14.298Z,87.90
2018-09-10T07:57:16.394Z,88.20
2018-09-10T07:59:18.523Z,88.10
2018-09-10T08:01:20.686Z,88.10
2018-09-10T08:03:22.799Z,88.20
2018-09-10T08:05:24.923Z,87.70
2018-09-10T08:07:27.114Z,87.60
2018-09-10T08:09:29.261Z,87.30
2018-09-10T08:11:31.339Z,87.30
2018-09-10T08:13:33.538Z,87.30
2018-09-10T08:15:35.724Z,87.20
2018-09-10T08:17:38.851Z,87.40
2018-09-10T08:19:41.008Z,87.40
2018-09-10T08:21:43.149Z,87.30
2018-09-10T08:23:45.294Z,87.60
2018-09-10T08:25:47.414Z,87.80
2018-09-10T08:27:49.520Z,87.60
2018-09-10T08:29:51.685Z,87.40
2018-09-10T08:31:53.854Z,87.40
2018-09-10T08:33:56.378Z,87.10
2018-09-10T08:35:58.494Z,86.70
2018-09-10T08:38:00.606Z,86.90
2018-09-10T08:40:02.813Z,86.70
2018-09-10T08:42:04.914Z,86.30
2018-09-10T08:44:07.044Z,86.60
2018-09-10T08:46:09.202Z,86.60
2018-09-10T08:48:11.390Z,86.50
2018-09-10T08:50:13.500Z,86.10
2018-09-10T08:52:15.651Z,86.30
2018-09-10T08:54:17.915Z,85.90
2018-09-10T08:56:20.093Z,86.10
2018-09-10T08:58:22.116Z,86.10
2018-09-10T09:00:25.321Z,86.30
2018-09-10T09:02:27.473Z,86.40
2018-09-10T09:04:29.587Z,86.00
2018-09-10T09:06:31.792Z,86.30
2018-09-10T09:08:33.854Z,86.40
2018-09-10T09:10:36.019Z,85.60
2018-09-10T09:12:38.210Z,85.60
2018-09-10T09:14:40.314Z,85.20
2018-09-10T09:16:42.417Z,85.10
2018-09-10T09:18:51.442Z,84.70
2018-09-10T09:20:53.593Z,84.80
2018-09-10T09:22:55.718Z,84.70
2018-09-10T09:24:57.938Z,85.10
2018-09-10T09:27:00.394Z,85.20
2018-09-10T09:29:02.529Z,85.50
2018-09-10T09:31:04.720Z,85.80
2018-09-10T09:33:06.876Z,86.30
2018-09-10T09:35:08.994Z,86.60
2018-09-10T09:37:16.880Z,85.90
2018-09-10T09:39:24.713Z,85.20
2018-09-10T09:41:32.449Z,85.10
2018-09-10T09:43:40.215Z,84.20
2018-09-10T09:45:48.279Z,83.90
2018-09-10T09:47:50.395Z,83.60
2018-09-10T09:49:52.540Z,82.90
2018-09-10T09:51:54.744Z,82.20
2018-09-10T09:54:03.758Z,82.60
2018-09-10T09:56:05.898Z,83.20
2018-09-10T09:58:08.021Z,83.50
2018-09-10T10:00:19.721Z,83.80
2018-09-10T10:02:27.597Z,84.50
2018-09-10T10:04:29.723Z,84.10
2018-09-10T10:06:38.669Z,84.20
2018-09-10T10:08:40.778Z,83.70
2018-09-10T10:10:42.986Z,83.50
2018-09-10T10:12:45.102Z,83.40
2018-09-10T10:14:47.200Z,83.20
2018-09-10T10:16:49.310Z,83.20
2018-09-10T10:18:51.493Z,83.70
2018-09-10T10:20:53.643Z,83.50
2018-09-10T10:22:55.775Z,82.80
2018-09-10T10:24:57.883Z,82.20
2018-09-10T10:27:00.015Z,81.30
2018-09-10T10:29:02.174Z,80.20
2018-09-10T10:31:04.750Z,80.50
2018-09-10T10:33:06.930Z,81.50
2018-09-10T10:35:09.117Z,81.50
2018-09-10T10:37:11.534Z,81.50
2018-09-10T10:39:13.718Z,81.20
2018-09-10T10:41:15.795Z,80.90
2018-09-10T10:43:18.065Z,82.10
2018-09-10T10:45:20.170Z,81.60
2018-09-10T10:47:22.376Z,81.40
2018-09-10T10:49:24.465Z,81.00
2018-09-10T10:51:26.595Z,81.60
2018-09-10T10:53:28.737Z,80.10
2018-09-10T10:55:31.202Z,80.30
2018-09-10T10:57:33.331Z,80.80
2018-09-10T10:59:35.450Z,79.10
2018-09-10T11:01:37.815Z,79.20
2018-09-10T11:03:39.927Z,80.10
2018-09-10T11:05:42.078Z,80.20
2018-09-10T11:07:44.241Z,80.40
2018-09-10T11:09:46.363Z,80.00
2018-09-10T11:11:48.491Z,78.90
2018-09-10T11:13:50.629Z,78.70
2018-09-10T11:15:52.774Z,78.70
2018-09-10T11:17:54.892Z,79.80
2018-09-10T11:19:57.016Z,79.00
2018-09-10T11:21:59.146Z,79.20
2018-09-10T11:24:01.274Z,79.50
2018-09-10T11:26:03.682Z,78.50
2018-09-10T11:28:05.880Z,76.50
2018-09-10T11:30:08.014Z,76.10
2018-09-10T11:32:10.150Z,74.40
2018-09-10T11:34:12.262Z,72.80
2018-09-10T11:36:14.385Z,72.30
2018-09-10T11:38:16.514Z,73.20
2018-09-10T11:40:18.683Z,73.60
2018-09-10T11:42:21.023Z,74.10
2018-09-10T11:44:23.133Z,73.30
2018-09-10T11:46:25.278Z,73.80
2018-09-10T11:48:27.386Z,74.40
2018-09-10T11:50:29.579Z,74.50
2018-09-10T11:52:31.711Z,74.90
2018-09-10T11:54:33.826Z,74.90
2018-09-10T11:56:35.989Z,72.10
2018-09-10T11:58:38.094Z,68.90
2018-09-10T12:00:40.256Z,69.10
2018-09-10T12:02:42.358Z,69.70
2018-09-10T12:04:44.479Z,69.60
2018-09-10T12:06:46.615Z,70.30
2018-09-10T12:08:48.765Z,70.50
2018-09-10T12:10:50.875Z,71.40
2018-09-10T12:12:53.500Z,72.50
2018-09-10T12:14:55.688Z,73.10
2018-09-10T12:16:57.813Z,73.70
2018-09-10T12:19:00.218Z,72.30
2018-09-10T12:21:02.403Z,71.00
2018-09-10T12:23:04.718Z,71.30
2018-09-10T12:25:07.194Z,73.00
2018-09-10T12:27:09.370Z,72.90
2018-09-10T12:29:11.516Z,72.20
2018-09-10T12:31:13.678Z,72.50
2018-09-10T12:33:15.806Z,70.70
2018-09-10T12:35:18.087Z,71.00
2018-09-10T12:37:20.235Z,71.50
2018-09-10T12:39:22.417Z,72.70
2018-09-10T12:41:24.488Z,73.00
2018-09-10T12:43:26.971Z,72.80
2018-09-10T12:45:29.099Z,72.40
2018-09-10T12:47:31.223Z,72.00
2018-09-10T12:49:33.664Z,72.10
2018-09-10T12:51:35.905Z,73.10
2018-09-10T12:53:38.082Z,73.40
2018-09-10T12:55:40.348Z,74.30
2018-09-10T12:57:42.499Z,75.80
2018-09-10T12:59:44.663Z,76.10
2018-09-10T13:01:46.891Z,76.70
2018-09-10T13:03:49.000Z,76.20
2018-09-10T13:05:51.142Z,76.30
2018-09-10T13:07:53.383Z,75.90
2018-09-10T13:09:55.567Z,75.30
2018-09-10T13:11:57.720Z,76.30
2018-09-10T13:14:00.035Z,76.70
2018-09-10T13:16:02.158Z,77.00
2018-09-10T13:18:04.439Z,77.90
2018-09-10T13:20:06.607Z,77.70
2018-09-10T13:22:08.750Z,78.40
2018-09-10T13:24:10.858Z,78.30
2018-09-10T13:26:13.026Z,78.30
2018-09-10T13:28:15.157Z,78.30
2018-09-10T13:30:17.322Z,78.00
2018-09-10T13:32:19.543Z,77.90
2018-09-10T13:34:21.676Z,78.30
2018-09-10T13:36:23.814Z,78.30
2018-09-10T13:38:25.980Z,77.80
2018-09-10T13:40:28.183Z,77.80
2018-09-10T13:42:30.307Z,78.00
2018-09-10T13:44:32.406Z,77.40
2018-09-10T13:46:34.571Z,77.00
2018-09-10T13:48:36.682Z,76.40
2018-09-10T13:50:38.859Z,76.30
2018-09-10T13:52:40.976Z,76.70
2018-09-10T13:54:43.160Z,77.70
2018-09-10T13:56:45.443Z,78.00
2018-09-10T13:58:47.874Z,78.00
2018-09-10T14:00:50.006Z,78.50
2018-09-10T14:02:52.134Z,78.50
2018-09-10T14:04:54.247Z,79.50
2018-09-10T14:06:56.394Z,79.50
2018-09-10T14:08:59.060Z,79.70
2018-09-10T14:11:01.253Z,79.70
2018-09-10T14:13:03.398Z,79.80
2018-09-10T14:15:05.845Z,80.10
2018-09-10T14:17:07.998Z,80.40
2018-09-10T14:19:10.163Z,80.20
2018-09-10T14:21:12.481Z,80.50
2018-09-10T14:23:14.850Z,80.40
2018-09-10T14:25:17.028Z,80.40
2018-09-10T14:27:19.298Z,80.40
2018-09-10T14:29:21.408Z,80.30
2018-09-10T14:31:23.651Z,80.80
2018-09-10T14:33:25.758Z,80.80
2018-09-10T14:35:28.300Z,81.00
2018-09-10T14:37:30.465Z,81.10
2018-09-10T14:39:32.630Z,81.20
2018-09-10T14:41:35.090Z,81.30
2018-09-10T14:43:37.206Z,81.50
2018-09-10T14:45:39.379Z,81.70
2018-09-10T14:47:41.563Z,81.90
2018-09-10T14:49:43.677Z,81.80
2018-09-10T14:51:45.812Z,82.10
2018-09-10T14:53:48.038Z,82.60
2018-09-10T14:55:50.177Z,82.60
2018-09-10T14:57:52.375Z,82.70
2018-09-10T14:59:54.778Z,82.70
2018-09-10T15:01:56.933Z,82.70
2018-09-10T15:03:59.088Z,82.70
2018-09-10T15:06:01.310Z,82.90
2018-09-10T15:08:03.536Z,83.10
2018-09-10T15:10:05.683Z,83.50
2018-09-10T15:12:07.860Z,83.40
2018-09-10T15:14:09.942Z,83.60
2018-09-10T15:16:12.074Z,83.50
2018-09-10T15:18:14.932Z,83.50
2018-09-10T15:20:17.047Z,83.50
2018-09-10T15:22:19.188Z,83.60
2018-09-10T15:24:21.287Z,83.50
2018-09-10T15:26:24.029Z,83.90
2018-09-10T15:28:26.421Z,83.70
2018-09-10T15:30:28.658Z,83.90
2018-09-10T15:32:30.782Z,83.80
2018-09-10T15:34:32.912Z,83.80
2018-09-10T15:36:35.160Z,83.80
2018-09-10T15:38:37.374Z,83.80
2018-09-10T15:40:39.586Z,83.90
2018-09-10T15:42:41.801Z,84.00
2018-09-10T15:44:43.930Z,84.20
2018-09-10T15:46:46.104Z,84.10
2018-09-10T15:48:48.270Z,84.50
2018-09-10T15:50:50.431Z,84.80
2018-09-10T15:52:52.567Z,84.70
2018-09-10T15:54:54.742Z,84.80
2018-09-10T15:56:56.931Z,85.00
2018-09-10T15:58:59.266Z,84.70
2018-09-10T16:01:01.414Z,85.20
2018-09-10T16:03:04.639Z,84.90
2018-09-10T16:05:06.787Z,84.90
2018-09-10T16:07:08.965Z,84.90
2018-09-10T16:09:11.413Z,84.80
2018-09-10T16:11:13.545Z,84.90
2018-09-10T16:13:15.747Z,84.90
2018-09-10T16:15:17.900Z,85.00
2018-09-10T16:17:20.046Z,85.00
2018-09-10T16:19:22.175Z,85.10
2018-09-10T16:21:24.309Z,85.30
2018-09-10T16:23:26.492Z,85.20
2018-09-10T16:25:28.691Z,85.50
2018-09-10T16:27:31.053Z,85.30
2018-09-10T16:29:33.159Z,85.40
2018-09-10T16:31:35.305Z,85.40
2018-09-10T16:33:38.016Z,85.40
2018-09-10T16:35:40.779Z,85.50
2018-09-10T16:37:42.911Z,85.60
2018-09-10T16:39:45.030Z,85.70
2018-09-10T16:41:47.242Z,85.60
2018-09-10T16:43:49.429Z,85.60
2018-09-10T16:45:51.579Z,85.70
2018-09-10T16:47:54.042Z,86.00
2018-09-10T16:49:56.206Z,85.80
2018-09-10T16:51:58.298Z,85.80
2018-09-10T16:54:00.866Z,85.90
2018-09-10T16:56:02.982Z,85.90
2018-09-10T16:58:05.126Z,86.20
2018-09-10T17:00:07.259Z,86.10
2018-09-10T17:02:09.413Z,86.20
2018-09-10T17:04:11.609Z,86.20
2018-09-10T17:06:13.778Z,86.00
2018-09-10T17:08:15.934Z,86.00
2018-09-10T17:10:18.053Z,86.10
2018-09-10T17:12:20.279Z,86.20
2018-09-10T17:14:22.273Z,86.40
2018-09-10T17:16:24.398Z,86.10
2018-09-10T17:18:26.526Z,86.30
2018-09-10T17:20:28.689Z,86.10
2018-09-10T17:22:30.893Z,86.30
2018-09-10T17:24:33.039Z,86.20
2018-09-10T17:26:35.322Z,86.10
2018-09-10T17:28:37.501Z,86.20
2018-09-10T17:30:39.628Z,86.30
2018-09-10T17:32:41.757Z,86.30
2018-09-10T17:34:43.931Z,86.50
2018-09-10T17:36:46.093Z,86.60
2018-09-10T17:38:48.462Z,86.70
2018-09-10T17:40:50.654Z,86.50
2018-09-10T17:42:53.044Z,86.40
2018-09-10T17:44:55.175Z,86.50
2018-09-10T17:46:57.337Z,86.90
2018-09-10T17:48:59.423Z,87.20
2018-09-10T17:51:01.921Z,87.20
2018-09-10T17:53:04.165Z,87.20
2018-09-10T17:55:06.478Z,86.70
2018-09-10T17:57:08.719Z,86.60
2018-09-10T17:59:10.822Z,86.80
2018-09-10T18:01:13.012Z,86.70
2018-09-10T18:03:15.632Z,86.90
2018-09-10T18:05:17.865Z,87.00
2018-09-10T18:07:20.201Z,87.10
2018-09-10T18:09:22.898Z,87.60
2018-09-10T18:11:25.874Z,87.80
2018-09-10T18:13:28.390Z,87.70
2018-09-10T18:15:31.307Z,87.40
2018-09-10T18:17:34.255Z,87.80
2018-09-10T18:19:36.625Z,87.70
2018-09-10T18:21:39.327Z,88.00
2018-09-10T18:23:43.780Z,88.10
2018-09-10T18:25:46.526Z,88.40
2018-09-10T18:27:49.522Z,88.60
2018-09-10T18:29:53.373Z,88.70
2018-09-10T18:31:55.851Z,89.20
2018-09-10T18:33:58.341Z,89.20
2018-09-10T18:36:00.759Z,89.50
2018-09-10T18:38:04.524Z,89.40
2018-09-10T18:40:07.486Z,89.60
2018-09-10T18:42:10.182Z,89.90
2018-09-10T18:44:12.575Z,89.90
2018-09-10T18:46:15.512Z,89.80
2018-09-10T18:48:18.630Z,89.10
2018-09-10T18:50:22.075Z,89.50
2018-09-10T18:52:24.890Z,89.80
2018-09-10T18:54:27.560Z,89.70
2018-09-10T18:56:30.197Z,89.40
2018-09-10T18:58:33.239Z,89.30
2018-09-10T19:00:35.824Z,89.40
2018-09-10T19:02:38.501Z,89.60
2018-09-10T19:04:41.151Z,89.40
2018-09-10T19:06:44.026Z,89.00
2018-09-10T19:08:46.568Z,89.10
2018-09-10T19:10:49.026Z,89.30
2018-09-10T19:12:51.525Z,89.50
2018-09-10T19:14:53.907Z,89.60
2018-09-10T19:16:56.747Z,89.80
2018-09-10T19:18:59.259Z,89.70
2018-09-10T19:21:01.936Z,89.60
2018-09-10T19:23:05.096Z,89.90
2018-09-10T19:25:08.296Z,89.10
2018-09-10T19:27:10.632Z,89.50
2018-09-10T19:29:13.245Z,89.60
2018-09-10T19:31:15.725Z,89.10
2018-09-10T19:33:18.398Z,89.10
2018-09-10T19:35:24.354Z,89.10
2018-09-10T19:37:28.370Z,88.50
2018-09-10T19:39:31.022Z,88.50
2018-09-10T19:41:35.022Z,87.90
2018-09-10T19:43:37.607Z,88.00
2018-09-10T19:45:41.757Z,87.70
2018-09-10T19:47:44.094Z,87.70
2018-09-10T19:49:46.659Z,87.70
2018-09-10T19:51:48.794Z,87.80
2018-09-10T19:53:51.116Z,87.70
2018-09-10T19:55:53.283Z,87.50
2018-09-10T19:57:55.502Z,87.70
2018-09-10T19:59:57.775Z,87.90
2018-09-10T20:01:59.971Z,87.90
2018-09-10T20:04:02.556Z,87.80
2018-09-10T20:06:05.071Z,87.90
2018-09-10T20:08:07.269Z,87.90
2018-09-10T20:10:09.492Z,88.10
2018-09-10T20:12:11.654Z,87.90
2018-09-10T20:14:13.764Z,87.90
2018-09-10T20:16:15.955Z,88.10
2018-09-10T20:18:18.330Z,88.10
2018-09-10T20:20:20.453Z,88.20
2018-09-10T20:22:22.685Z,88.20
2018-09-10T20:24:25.251Z,88.30
2018-09-10T20:26:27.425Z,88.30
2018-09-10T20:28:29.608Z,88.70
2018-09-10T20:30:32.094Z,88.60
2018-09-10T20:32:34.186Z,88.90
2018-09-10T20:34:36.405Z,88.30
2018-09-10T20:36:38.921Z,87.80
2018-09-10T20:38:41.026Z,88.30
2018-09-10T20:40:43.222Z,89.30
2018-09-10T20:42:45.724Z,90.30
2018-09-10T20:44:47.874Z,89.90
2018-09-10T20:46:50.069Z,90.20
2018-09-10T20:48:52.202Z,91.50
2018-09-10T20:50:54.450Z,92.60
2018-09-10T20:52:56.598Z,93.30
2018-09-10T20:54:58.735Z,93.30
2018-09-10T20:57:01.045Z,93.20
2018-09-10T20:59:03.165Z,93.30
2018-09-10T21:01:05.390Z,92.30
2018-09-10T21:03:07.534Z,91.80
2018-09-10T21:05:09.988Z,91.00
2018-09-10T21:07:12.120Z,90.60
2018-09-10T21:09:14.215Z,90.10
2018-09-10T21:11:16.566Z,89.50
2018-09-10T21:13:18.745Z,89.10
2018-09-10T21:15:21.003Z,88.90
2018-09-10T21:17:23.073Z,89.10
2018-09-10T21:19:25.194Z,89.10
2018-09-10T21:21:27.320Z,88.80
2018-09-10T21:23:29.446Z,88.60
2018-09-10T21:25:31.605Z,89.50
2018-09-10T21:27:33.731Z,91.70
2018-09-10T21:29:35.878Z,92.60
2018-09-10T21:31:38.034Z,93.10
2018-09-10T21:33:40.163Z,93.70
2018-09-10T21:35:42.326Z,93.60
2018-09-10T21:37:44.942Z,93.30
2018-09-10T21:39:47.066Z,93.80
2018-09-10T21:41:49.208Z,94.30
2018-09-10T21:43:51.421Z,94.50
2018-09-10T21:45:53.547Z,94.50
2018-09-10T21:47:55.695Z,94.90
2018-09-10T21:49:57.882Z,95.10
2018-09-10T21:52:00.042Z,94.80
2018-09-10T21:54:02.210Z,95.00
2018-09-10T21:56:04.463Z,95.20
2018-09-10T21:58:06.690Z,95.30
2018-09-10T22:00:08.886Z,95.50
2018-09-10T22:02:11.068Z,95.50
2018-09-10T22:04:13.215Z,95.50
2018-09-10T22:06:15.363Z,95.70
2018-09-10T22:08:17.782Z,95.70
2018-09-10T22:10:19.984Z,96.10
2018-09-10T22:12:22.122Z,96.10
2018-09-10T22:14:24.258Z,96.20
2018-09-10T22:16:26.394Z,96.20
2018-09-10T22:18:28.613Z,96.10
2018-09-10T22:20:30.782Z,96.10
2018-09-10T22:22:32.918Z,95.90
2018-09-10T22:24:35.102Z,95.80
2018-09-10T22:26:37.478Z,95.40
2018-09-10T22:28:39.759Z,95.70
2018-09-10T22:30:41.901Z,95.20
2018-09-10T22:32:44.146Z,95.00
2018-09-10T22:34:46.315Z,94.60
2018-09-10T22:36:48.446Z,94.50
2018-09-10T22:38:50.719Z,94.70
2018-09-10T22:40:52.906Z,94.80
2018-09-10T22:42:55.095Z,94.60
2018-09-10T22:44:57.291Z,94.90
2018-09-10T22:46:59.457Z,94.80
2018-09-10T22:49:01.634Z,95.20
2018-09-10T22:51:03.902Z,95.30
2018-09-10T22:53:06.149Z,95.60
2018-09-10T22:55:10.315Z,95.70
2018-09-10T22:57:14.029Z,95.70
2018-09-10T22:59:17.276Z,95.90
2018-09-10T23:01:21.743Z,96.00
2018-09-10T23:03:25.264Z,95.80
2018-09-10T23:05:28.261Z,95.90
2018-09-10T23:07:31.764Z,95.70
2018-09-10T23:09:37.983Z,95.50
2018-09-10T23:11:40.801Z,95.20
2018-09-10T23:13:48.930Z,95.00
2018-09-10T23:15:53.054Z,94.80
2018-09-10T23:17:56.164Z,94.60
2018-09-10T23:20:05.188Z,94.10
2018-09-10T23:22:08.154Z,93.70
2018-09-10T23:24:11.003Z,93.90
2018-09-10T23:26:14.180Z,93.60
2018-09-10T23:28:17.686Z,93.50
2018-09-10T23:30:20.390Z,93.20
2018-09-10T23:32:29.166Z,92.70
2018-09-10T23:34:32.113Z,92.50
2018-09-10T23:36:34.946Z,92.10
2018-09-10T23:38:38.473Z,92.00
2018-09-10T23:40:43.073Z,91.80
2018-09-10T23:42:45.666Z,91.90
2018-09-10T23:44:48.979Z,91.50
2018-09-10T23:46:51.531Z,91.30
2018-09-10T23:48:54.310Z,91.30
2018-09-10T23:50:57.531Z,91.20
2018-09-10T23:53:00.156Z,91.10
2018-09-10T23:55:02.877Z,90.90
2018-09-10T23:57:05.302Z,90.90
2018-09-10T23:59:08.143Z,90.60
